x

Sentry Shoal (46131) Wave Buoy

7:00 - Fri 29th Jul 2016 All times are PDT. -7 hours from GMT.

  • Sig Wave height 2.3ft
  • Peak Period 3s
  • Wind
    25mph, 29mph gusts
  • Sea Temp 58°f
  • Luft Temp 65°f
  • Sea Pressure 1013.1mb
  • Sentry Shoal
  • Sentry Shoal

More Historic Weather Station data

Upgrade to MSW Pro to gain access to the past 30 days of data for over 8000 Wavebouys and Weather Stations around the globe.

Join Pro

Comparision Forecast

View Surf forecast
   
Fr 07/29 7:00 2.5ft 3s 25 29 mph 1013.1mb 58f 65f
6:00 2ft 3s 18 20 mph 1013.6mb 58f 65f
5:00 2ft 2s 22 27 mph 1013.7mb 59f 67f
4:00 2.5ft 3s 22 25 mph 1014.1mb 59f 66f
3:00 2ft 3s 25 31 mph 1014.2mb 60f 68f
2:00 1.6ft 3s 16 20 mph 1015mb 60f 67f
1:00 1.6ft 3s 13 16 mph 1015.4mb 58f 65f
12:00 1.6ft 3s 18 22 mph 1016mb 58f 65f
11:00 1.6ft 3s 16 18 mph 1016.3mb 58f 63f
10:00 1.6ft 3s 13 16 mph 1016.9mb 58f 62f
9:00 1.6ft 3s 16 18 mph 1017.3mb 59f 62f
8:00 2ft 3s 18 25 mph 1017.5mb 61f 61f
7:00 2ft 3s 20 25 mph 1017.3mb 61f 61f
6:00 1.6ft 2s 20 25 mph 1017.2mb 60f 61f
5:00 2ft 3s 20 25 mph 1017.1mb 59f 62f
4:00 1.6ft 3s 22 27 mph 1017.1mb 60f 62f
3:00 2ft 3s 22 27 mph 1017.1mb 60f 62f
2:00 2ft 3s 20 25 mph 1017.1mb 59f 62f
1:00 2.5ft 3s 20 22 mph 1017.3mb 59f 63f
12:00 1.6ft 3s 20 25 mph 1017.3mb 59f 63f
Do 07/28 11:00 1.6ft 3s 20 22 mph 1017.4mb 60f 64f
10:00 2ft 3s 18 22 mph 1017.5mb 61f 65f
9:00 2.5ft 3s 18 22 mph 1017.4mb 62f 67f
8:00 1.6ft 3s 22 27 mph 1016.8mb 62f 69f
7:00 1.6ft 3s 20 25 mph 1017.2mb 62f 71f
6:00 1ft 3s 18 22 mph 1017.4mb 63f 71f
5:00 1ft 3s 11 13 mph 1017.9mb 63f 70f
4:00 0.7ft 2s 11 13 mph 1018.4mb 62f 69f
3:00 0.7ft 2s 7 9 mph 1019.1mb 63f 68f
2:00 0.7ft 2s 9 11 mph 1019.7mb 62f 67f
1:00 0.7ft 2s 13 16 mph 1020.3mb 62f 66f
12:00 1ft 3s 9 13 mph 1020.9mb 60f 65f
11:00 1.3ft 3s 13
mph
1021.2mb 59f 62f
10:00 1.6ft 3s 13 16 mph 1021.4mb 59f 62f
9:00 1.3ft 3s 16 18 mph 1021.5mb 60f 62f
8:00 1.6ft 3s 16 18 mph 1021.5mb 61f 61f
7:00  -   -  18
mph
1021.2mb - 61f
6:00 1.6ft 3s 20 22 mph 1021mb 60f 61f
5:00 1.6ft 3s 18 20 mph 1020.5mb 60f 61f
4:00 1.6ft 2s 18 20 mph 1020.2mb 60f 61f
3:00 1.6ft 2s 20 25 mph 1020.1mb 60f 62f
2:00 2ft 2s 20 25 mph 1019.6mb 60f 61f
1:00 2ft 3s 20 25 mph 1019.4mb 61f 62f
Mi 07/27 11:00 1.6ft 3s 18 20 mph 1019.6mb 63f 65f
10:00 2ft 3s 18 20 mph 1019.3mb 63f 66f
9:00 2ft 3s 20 22 mph 1018.7mb 63f 68f
8:00 1.6ft 3s 22 25 mph 1018.2mb 64f 70f
7:00 1.3ft 2s 16 18 mph 1018.3mb 64f 71f
6:00 1.3ft 3s 16 18 mph 1018.6mb 64f 72f
5:00 1ft 2s 13
mph
1019.1mb 64f 70f
4:00 0.7ft 2s 11 13 mph 1019.4mb 65f 70f
3:00 0.3ft 2s 11 13 mph 1019.6mb 64f 71f
2:00 0.3ft 2s 7
mph
1020.1mb 64f 68f
1:00 0.7ft 2s 4 7 mph 1020.6mb 64f 66f
12:00 0.7ft 2s 7 9 mph 1021.1mb 63f 65f
11:00 1ft 2s 11
mph
1021.2mb 63f 64f
10:00 1ft 3s 13 18 mph 1021.2mb 63f 63f
9:00 1ft 3s 13 16 mph 1021.5mb 64f 62f
8:00 1.3ft 2s 13 16 mph 1021.4mb 64f 62f
7:00 1.6ft 3s 13 16 mph 1021.4mb 65f 61f
6:00 2ft 3s 16 18 mph 1021mb 65f 61f
5:00 2ft 3s 16 18 mph 1020.6mb 65f 61f
4:00 2ft 3s 18 20 mph 1020.1mb 65f 62f
3:00 2ft 3s 18 20 mph 1019.7mb 62f 62f
2:00 2ft 3s 18 20 mph 1019.4mb 62f 62f
1:00 2ft 3s 20 22 mph 1019.4mb 63f 63f
12:00 1.6ft 2s 22 25 mph 1019.4mb 64f 64f
Di 07/26 11:00 2ft 3s 22 25 mph 1019.1mb 64f 65f
10:00 2ft 3s 22 27 mph 1018.7mb 66f 66f
9:00 1.6ft 3s 20 22 mph 1018.2mb 67f 68f
8:00 1.6ft 3s 18 22 mph 1017.8mb 68f 70f
7:00 1.6ft 3s 18 22 mph 1017.9mb 67f 72f
6:00 1.3ft 3s 16 18 mph 1018.3mb 67f 71f
5:00 0.7ft 3s 13 16 mph 1018.7mb 68f 71f
4:00 0.7ft 2s 7 9 mph 1019.2mb 68f 70f
3:00 0.3ft 2s 2 4 mph 1019.7mb 67f 69f
2:00 0.3ft 2s 4 7 mph 1020mb 66f 67f
1:00 0.3ft 3s 7
mph
1020.1mb 65f 66f
12:00 0.7ft 2s 9
mph
1020.2mb 65f 65f
11:00 1ft 2s 9 11 mph 1020.4mb 65f 64f
10:00 1.3ft 2s 13 16 mph 1020.5mb 65f 63f
9:00 1.6ft 3s 13 18 mph 1020.6mb 65f 62f
8:00 2ft 3s 13 16 mph 1020.4mb 66f 62f
7:00 2ft 3s 18 20 mph 1019.8mb 66f 61f
6:00 2ft 3s 18 22 mph 1019.4mb 66f 61f
4:00 2ft 3s 22 25 mph 1018.3mb 66f 63f